Time;durP1;ratioP1;P1;durP2;ratioP2;P2;SDS_P1;SDS_P2;PMS_P1;PMS_P2;Temp;Humidity;BMP_temperature;BMP_pressure;BME280_temperature;BME280_humidity;BME280_pressure;Samples;Min_cycle;Max_cycle;Signal;HPM_P1;HPM_P2
2023/05/29 00:02:23;;;;;;;;;;;;;;;10.85;63.35;99970.78;5069117;28;20063;-77
2023/05/29 00:04:50;;;;;;;0.10;0.10;;;;;;;10.81;63.30;99972.44;5086558;28;20315;-72
2023/05/29 00:07:17;;;;;;;0.10;0.10;;;;;;;10.78;63.65;99971.06;5055658;28;20055;-72
2023/05/29 00:09:43;;;;;;;0.10;0.10;;;;;;;10.79;63.61;99978.19;5044532;28;20113;-73
2023/05/29 00:12:09;;;;;;;0.10;0.10;;;;;;;10.82;63.71;99977.63;5063586;28;20048;-73
2023/05/29 00:14:36;;;;;;;0.60;0.10;;;;;;;10.79;63.98;99978.19;5077442;28;20059;-73
2023/05/29 00:17:03;;;;;;;0.10;0.10;;;;;;;10.76;64.11;99979.53;5036440;28;20071;-72
2023/05/29 00:19:30;;;;;;;0.10;0.10;;;;;;;10.79;63.88;99991.88;5044074;28;20056;-72
2023/05/29 00:21:56;;;;;;;0.10;0.10;;;;;;;10.81;63.76;99989.69;5029804;28;20143;-73
2023/05/29 00:24:22;;;;;;;0.10;0.10;;;;;;;10.81;64.01;99986.94;5062944;28;20048;-72
2023/05/29 00:26:48;;;;;;;0.10;0.10;;;;;;;10.76;64.04;99978.72;5066529;28;20123;-73
2023/05/29 00:29:15;;;;;;;0.07;0.07;;;;;;;10.77;63.90;99983.09;5046238;28;20053;-72
2023/05/29 00:31:41;;;;;;;0.00;0.00;;;;;;;10.75;64.04;99991.56;5075235;28;20040;-73
2023/05/29 00:34:09;;;;;;;0.10;0.10;;;;;;;10.74;64.32;99987.19;5081850;28;20492;-72
2023/05/29 00:36:35;;;;;;;0.10;0.10;;;;;;;10.73;63.98;99990.19;5081675;28;20494;-71
2023/05/29 00:39:02;;;;;;;0.75;0.10;;;;;;;10.72;64.23;99985.81;5063767;28;20396;-72
2023/05/29 00:41:28;;;;;;;0.08;0.08;;;;;;;10.70;63.83;99985.28;5050866;28;20040;-71
2023/05/29 00:43:55;;;;;;;0.13;0.13;;;;;;;10.72;63.32;99981.19;5050238;28;20048;-72
2023/05/29 00:46:21;;;;;;;0.10;0.10;;;;;;;10.72;63.57;99986.66;5081488;28;20507;-75
2023/05/29 00:48:49;;;;;;;0.10;0.10;;;;;;;10.69;63.47;99989.09;5083877;28;20086;-71
2023/05/29 00:51:17;;;;;;;0.13;0.13;;;;;;;10.66;63.74;99990.47;5070897;28;20048;-72
2023/05/29 00:53:44;;;;;;;0.10;0.10;;;;;;;10.66;63.82;99982.25;5086273;28;20534;-72
2023/05/29 00:56:12;;;;;;;0.10;0.10;;;;;;;10.67;63.58;99989.34;5085469;28;20414;-72
2023/05/29 00:58:38;;;;;;;0.10;0.10;;;;;;;10.67;63.45;99996.75;5086224;28;20079;-72
2023/05/29 01:01:05;;;;;;;0.10;0.10;;;;;;;10.67;63.05;99994.84;5088153;28;20090;-72
2023/05/29 01:03:33;;;;;;;0.10;0.10;;;;;;;10.66;62.62;99993.19;5070491;28;20089;-72
2023/05/29 01:06:00;;;;;;;0.10;0.10;;;;;;;10.64;62.36;99993.47;5084734;28;20110;-72
2023/05/29 01:08:28;;;;;;;0.10;0.10;;;;;;;10.66;62.47;100000.59;5087239;28;20059;-72
2023/05/29 01:10:56;;;;;;;;;;;;;;;10.64;63.15;100003.59;5060486;28;20048;-72
2023/05/29 01:13:29;;;;;;;0.10;0.10;;;;;;;10.63;62.84;100001.94;5068583;28;19924;-76
2023/05/29 01:16:01;;;;;;;0.10;0.10;;;;;;;10.64;63.09;99998.13;5047968;28;20606;-76
2023/05/29 01:18:59;;;;;;;0.10;0.10;;;;;;;10.65;63.40;99997.03;5048744;28;20121;-76
2023/05/29 01:21:43;;;;;;;0.15;0.10;;;;;;;10.68;62.49;99996.47;5040870;28;20052;-76
2023/05/29 01:24:18;;;;;;;0.10;0.10;;;;;;;10.74;62.37;100000.03;5088665;28;20051;-76
2023/05/29 01:26:51;;;;;;;0.10;0.10;;;;;;;10.75;62.12;100001.69;5040430;28;20044;-76
2023/05/29 01:29:22;;;;;;;0.10;0.10;;;;;;;10.77;61.70;100000.31;5031405;28;20055;-76
2023/05/29 01:31:52;;;;;;;0.10;0.10;;;;;;;10.77;61.13;100008.53;5032019;28;20530;-77
2023/05/29 01:34:18;;;;;;;0.10;0.10;;;;;;;10.83;61.41;100009.38;5051192;28;20520;-76
2023/05/29 01:36:46;;;;;;;0.10;0.10;;;;;;;10.84;61.32;100013.75;5068667;28;20110;-76
2023/05/29 01:39:13;;;;;;;0.20;0.20;;;;;;;10.83;61.69;100008.53;5031019;28;20102;-76
2023/05/29 01:41:40;;;;;;;0.10;0.10;;;;;;;10.84;62.04;100011.00;5065488;28;20048;-76
2023/05/29 01:44:09;;;;;;;0.10;0.10;;;;;;;10.88;61.69;100019.50;5030642;28;20064;-72
2023/05/29 01:46:37;;;;;;;0.10;0.10;;;;;;;10.91;61.58;100017.03;5065032;28;20555;-72
2023/05/29 01:49:04;;;;;;;0.38;0.10;;;;;;;10.90;61.97;100017.31;5065527;28;20505;-72
2023/05/29 01:51:31;;;;;;;0.10;0.10;;;;;;;10.97;62.01;100019.78;5048147;28;20044;-72
2023/05/29 01:54:02;;;;;;;0.10;0.10;;;;;;;10.98;62.14;100014.03;5051159;28;20048;-72
2023/05/29 01:56:29;;;;;;;0.10;0.10;;;;;;;11.03;61.86;100027.72;5051199;28;20068;-72
2023/05/29 01:58:57;;;;;;;0.13;0.13;;;;;;;11.02;62.12;100015.13;5032859;28;20087;-72
2023/05/29 02:01:47;;;;;;;0.10;0.10;;;;;;;11.07;62.56;100031.56;5047938;28;20056;-72
2023/05/29 02:04:13;;;;;;;0.10;0.10;;;;;;;11.09;62.30;100020.34;5064931;28;20530;-72
2023/05/29 02:06:39;;;;;;;0.10;0.10;;;;;;;11.13;62.31;100026.91;5066158;28;20048;-73
2023/05/29 02:09:06;;;;;;;0.10;0.10;;;;;;;11.18;62.30;100031.56;5032812;28;20069;-72
2023/05/29 02:11:33;;;;;;;0.10;0.10;;;;;;;11.23;62.04;100023.34;5086995;28;20048;-76
2023/05/29 02:14:02;;;;;;;0.10;0.10;;;;;;;11.29;61.89;100022.25;5088010;28;20048;-76
2023/05/29 02:16:33;;;;;;;0.10;0.10;;;;;;;11.37;61.97;100023.59;5051535;28;20051;-76
2023/05/29 02:19:01;;;;;;;0.10;0.10;;;;;;;11.43;61.83;100022.53;5089625;28;20086;-76
2023/05/29 02:21:49;;;;;;;0.20;0.20;;;;;;;11.48;61.39;100025.25;5057820;28;20040;-72
2023/05/29 02:24:15;;;;;;;0.10;0.10;;;;;;;11.53;60.15;100023.59;5047455;28;20359;-72
2023/05/29 02:26:42;;;;;;;0.10;0.10;;;;;;;11.56;60.26;100029.34;5065835;28;20056;-72
2023/05/29 02:29:08;;;;;;;0.17;0.17;;;;;;;11.56;60.19;100034.81;5083328;28;20072;-72
2023/05/29 02:31:36;;;;;;;0.20;0.20;;;;;;;11.58;60.26;100029.88;5066862;28;20961;-76
2023/05/29 02:34:05;;;;;;;0.10;0.10;;;;;;;11.60;60.64;100030.44;5069932;28;20629;-76
2023/05/29 02:36:31;;;;;;;0.10;0.10;;;;;;;11.67;60.28;100034.81;5084208;28;20171;-76
2023/05/29 02:38:58;;;;;;;0.10;0.10;;;;;;;11.68;60.14;100034.53;5086391;28;20059;-76
2023/05/29 02:41:24;;;;;;;0.10;0.10;;;;;;;11.65;59.93;100020.59;5051522;28;20097;-76
2023/05/29 02:43:50;;;;;;;0.10;0.10;;;;;;;11.74;59.92;100033.44;5085052;28;20504;-76
2023/05/29 02:46:17;;;;;;;0.10;0.10;;;;;;;11.79;59.80;100032.59;5085398;28;20047;-72
2023/05/29 02:48:45;;;;;;;0.20;0.20;;;;;;;11.86;60.11;100026.81;5065180;28;20072;-72
2023/05/29 02:51:12;;;;;;;0.10;0.10;;;;;;;11.92;59.57;100031.19;5048481;28;20347;-72
2023/05/29 02:53:38;;;;;;;0.20;0.20;;;;;;;11.97;58.98;100031.19;5034442;28;20079;-72
2023/05/29 02:56:06;;;;;;;0.10;0.10;;;;;;;11.98;58.66;100038.28;5084547;28;20047;-76
2023/05/29 02:58:32;;;;;;;0.10;0.10;;;;;;;12.04;58.35;100036.41;5085644;28;20071;-76
2023/05/29 03:01:00;;;;;;;0.20;0.20;;;;;;;12.10;57.64;100035.28;5083545;28;20059;-77
2023/05/29 03:03:26;;;;;;;;;;;;;;;12.14;57.80;100044.59;5051951;28;20040;-76
2023/05/29 03:05:53;;;;;;;0.10;0.10;;;;;;;12.19;57.31;100043.75;5065656;28;19969;-76
2023/05/29 03:08:20;;;;;;;0.20;0.20;;;;;;;12.24;56.71;100049.22;5086522;28;20067;-76
2023/05/29 03:10:47;;;;;;;0.20;0.20;;;;;;;12.29;57.04;100054.66;5033965;28;20044;-76
2023/05/29 03:13:15;;;;;;;0.10;0.10;;;;;;;12.36;57.30;100048.88;5070145;28;20242;-76
2023/05/29 03:15:50;;;;;;;0.10;0.10;;;;;;;12.45;55.97;100052.69;5065075;28;20467;-76
2023/05/29 03:18:17;;;;;;;0.20;0.20;;;;;;;12.51;55.45;100058.97;5067892;28;20043;-76
2023/05/29 03:20:44;;;;;;;0.10;0.10;;;;;;;12.53;55.57;100051.28;5083505;28;20052;-76
2023/05/29 03:23:11;;;;;;;0.10;0.10;;;;;;;12.61;55.46;100064.41;5049675;28;20051;-76
2023/05/29 03:25:38;;;;;;;0.10;0.10;;;;;;;12.66;54.89;100066.31;5034894;28;20073;-76
2023/05/29 03:28:04;;;;;;;0.20;0.20;;;;;;;12.71;55.28;100074.50;5069798;28;20071;-76
2023/05/29 03:30:31;;;;;;;0.20;0.20;;;;;;;12.77;54.26;100070.63;5061069;28;20462;-76
2023/05/29 03:33:03;;;;;;;0.20;0.20;;;;;;;12.81;54.41;100072.81;5065151;28;20072;-77
2023/05/29 03:35:41;;;;;;;0.10;0.10;;;;;;;12.81;53.83;100067.31;5058957;28;20131;-76
2023/05/29 03:38:11;;;;;;;0.10;0.10;;;;;;;12.85;53.47;100060.16;5067702;28;20060;-76
2023/05/29 03:40:40;;;;;;;0.20;0.20;;;;;;;12.92;53.40;100060.69;5048731;28;20044;-76
2023/05/29 03:43:07;;;;;;;0.10;0.10;;;;;;;12.96;53.32;100066.44;5059253;28;20260;-72
2023/05/29 03:45:34;;;;;;;0.17;0.17;;;;;;;13.02;52.71;100079.00;5063934;28;20075;-72
2023/05/29 03:48:00;;;;;;;0.10;0.10;;;;;;;13.07;52.92;100078.97;5045203;28;20087;-72
2023/05/29 03:50:27;;;;;;;0.10;0.10;;;;;;;13.12;53.32;100073.44;5023970;28;20114;-72
2023/05/29 03:53:10;;;;;;;0.10;0.10;;;;;;;13.11;52.78;100062.75;5023799;28;20081;-72
2023/05/29 03:55:38;;;;;;;0.17;0.13;;;;;;;13.24;52.05;100078.56;5037280;28;20053;-72
2023/05/29 03:58:07;;;;;;;0.20;0.20;;;;;;;13.30;51.89;100079.34;5022167;28;20037;-72
2023/05/29 04:00:34;;;;;;;0.20;0.20;;;;;;;13.32;51.79;100079.88;5012150;28;20045;-72
2023/05/29 04:03:03;;;;;;;0.20;0.20;;;;;;;13.34;51.41;100091.41;5027308;28;20056;-72
2023/05/29 04:05:29;;;;;;;0.20;0.20;;;;;;;13.36;51.53;100080.94;5026461;28;20041;-72
2023/05/29 04:07:56;;;;;;;0.15;0.15;;;;;;;13.46;51.54;100088.31;5022187;28;20411;-72
2023/05/29 04:10:23;;;;;;;0.20;0.20;;;;;;;13.54;51.67;100086.88;5030779;28;20055;-72
2023/05/29 04:12:51;;;;;;;0.20;0.20;;;;;;;13.58;51.67;100080.53;5024317;28;20057;-72
2023/05/29 04:15:17;;;;;;;0.10;0.10;;;;;;;13.65;51.47;100093.94;5039686;28;20045;-72
2023/05/29 04:17:44;;;;;;;0.10;0.10;;;;;;;13.72;51.25;100091.66;5040391;28;20080;-73
2023/05/29 04:20:11;;;;;;;0.20;0.20;;;;;;;13.80;51.18;100092.16;5040276;28;20052;-72
2023/05/29 04:22:38;;;;;;;0.20;0.20;;;;;;;13.83;50.94;100097.06;5027275;28;20043;-72
2023/05/29 04:25:05;;;;;;;0.20;0.20;;;;;;;13.86;50.72;100093.72;5042378;28;20049;-73
2023/05/29 04:27:37;;;;;;;;;;;;;;;13.88;51.31;100100.59;5044847;28;20291;-72
2023/05/29 04:30:08;;;;;;;0.20;0.20;;;;;;;13.94;50.38;100092.28;5022977;28;20354;-72
2023/05/29 04:32:40;;;;;;;0.20;0.20;;;;;;;13.89;50.20;100085.72;5024762;28;20148;-73
2023/05/29 04:35:07;;;;;;;0.20;0.20;;;;;;;14.02;50.08;100105.41;5020265;28;20068;-72
2023/05/29 04:37:39;;;;;;;0.32;0.20;;;;;;;14.08;49.73;100109.72;5041224;28;20053;-72
2023/05/29 04:40:11;;;;;;;0.20;0.20;;;;;;;14.13;49.67;100104.19;5042559;28;20095;-76
2023/05/29 04:42:39;;;;;;;0.20;0.20;;;;;;;14.15;48.88;100110.22;5041818;28;20053;-76
2023/05/29 04:45:11;;;;;;;0.20;0.20;;;;;;;14.19;48.48;100099.44;5038083;28;20056;-75
2023/05/29 04:47:44;;;;;;;0.17;0.17;;;;;;;14.22;48.14;100109.88;5040887;28;20053;-76
2023/05/29 04:50:12;;;;;;;0.20;0.20;;;;;;;14.30;47.92;100100.16;5056602;28;20455;-75
2023/05/29 04:52:40;;;;;;;0.45;0.20;;;;;;;14.37;48.02;100108.88;5065845;28;20145;-72
2023/05/29 04:55:08;;;;;;;0.20;0.20;;;;;;;14.43;47.67;100106.88;5064460;28;20139;-72
2023/05/29 04:57:35;;;;;;;0.20;0.20;;;;;;;14.49;47.21;100110.41;5063138;28;20615;-72
2023/05/29 05:00:04;;;;;;;0.20;0.20;;;;;;;14.54;47.01;100110.31;5044982;28;20052;-73
2023/05/29 05:02:32;;;;;;;0.30;0.30;;;;;;;14.62;46.66;100117.94;5046677;28;20063;-72
2023/05/29 05:04:59;;;;;;;0.20;0.20;;;;;;;14.68;46.79;100108.50;5062118;28;20072;-72
2023/05/29 05:07:25;;;;;;;0.10;0.10;;;;;;;14.72;46.63;100120.56;5059721;28;20094;-72
2023/05/29 05:09:51;;;;;;;0.20;0.20;;;;;;;14.80;46.62;100115.53;4699265;28;10000567;-71
2023/05/29 05:12:22;;;;;;;0.20;0.20;;;;;;;14.85;45.70;100116.31;5036470;28;20045;-72
2023/05/29 05:14:48;;;;;;;0.20;0.20;;;;;;;14.88;45.20;100112.94;5043194;28;20052;-76
2023/05/29 05:17:14;;;;;;;0.20;0.20;;;;;;;14.87;44.54;100108.56;5057561;28;20064;-75
2023/05/29 05:19:43;;;;;;;0.20;0.20;;;;;;;14.96;44.44;100116.13;5030302;28;20041;-75
2023/05/29 05:22:09;;;;;;;0.20;0.20;;;;;;;15.06;44.30;100117.94;5008805;28;20142;-75
2023/05/29 05:24:37;;;;;;;0.20;0.20;;;;;;;15.14;43.44;100111.75;5015060;28;20044;-75
2023/05/29 05:27:05;;;;;;;0.20;0.20;;;;;;;15.23;43.49;100111.91;5044475;28;20455;-76
2023/05/29 05:29:31;;;;;;;0.20;0.20;;;;;;;15.32;43.39;100112.88;5059702;28;20427;-76
2023/05/29 05:31:58;;;;;;;0.20;0.20;;;;;;;15.39;43.50;100107.00;5064658;28;20052;-76
2023/05/29 05:34:24;;;;;;;0.20;0.20;;;;;;;15.42;42.88;100109.16;5056782;28;20301;-76
2023/05/29 05:36:52;;;;;;;0.20;0.20;;;;;;;15.49;42.78;100117.03;5062568;28;20052;-76
2023/05/29 05:39:19;;;;;;;0.30;0.30;;;;;;;15.50;41.75;100113.97;5065572;28;20318;-73
2023/05/29 05:41:47;;;;;;;0.20;0.20;;;;;;;15.55;41.28;100121.31;5055232;28;20041;-77
2023/05/29 05:44:18;;;;;;;0.20;0.20;;;;;;;15.64;41.95;100114.03;5034821;28;20671;-77
2023/05/29 05:46:47;;;;;;;0.20;0.20;;;;;;;15.77;41.59;100115.19;5044110;28;20041;-77
2023/05/29 05:49:13;;;;;;;0.20;0.20;;;;;;;15.85;40.69;100121.94;5041286;28;20179;-76
2023/05/29 05:51:40;;;;;;;0.30;0.30;;;;;;;15.81;40.03;100102.41;5038031;28;20067;-75
2023/05/29 05:54:08;;;;;;;0.20;0.20;;;;;;;15.93;38.65;100112.19;5032042;28;20975;-72
2023/05/29 05:56:35;;;;;;;0.20;0.20;;;;;;;15.97;38.17;100111.28;5031306;28;20308;-72
2023/05/29 05:59:01;;;;;;;0.20;0.20;;;;;;;16.02;37.46;100116.69;5028841;28;20283;-72
2023/05/29 06:01:28;;;;;;;0.20;0.20;;;;;;;16.06;36.57;100118.81;5025501;28;20045;-72
2023/05/29 06:03:54;;;;;;;0.20;0.20;;;;;;;16.12;36.55;100121.19;5046555;28;20037;-71
2023/05/29 06:06:23;;;;;;;0.20;0.20;;;;;;;16.18;36.07;100121.91;5047915;28;20060;-72
2023/05/29 06:08:49;;;;;;;0.20;0.20;;;;;;;16.23;35.65;100121.81;5029368;28;20106;-72
2023/05/29 06:11:17;;;;;;;0.20;0.20;;;;;;;16.30;34.85;100125.00;5067141;28;20048;-72
2023/05/29 06:13:46;;;;;;;0.20;0.20;;;;;;;16.37;33.47;100123.75;5056146;28;20094;-71
2023/05/29 06:16:19;;;;;;;0.20;0.20;;;;;;;16.47;32.96;100128.25;5039716;28;20441;-72
2023/05/29 06:18:45;;;;;;;0.30;0.30;;;;;;;16.61;33.13;100128.28;5065366;28;20431;-75
2023/05/29 06:21:13;;;;;;;0.30;0.30;;;;;;;16.79;33.06;100126.53;5051491;28;20056;-77
2023/05/29 06:23:45;;;;;;;0.30;0.30;;;;;;;16.94;32.64;100128.13;5028918;28;20071;-72
2023/05/29 06:26:12;;;;;;;0.30;0.30;;;;;;;17.10;32.04;100123.94;5037795;28;20160;-72
2023/05/29 06:28:39;;;;;;;0.30;0.30;;;;;;;17.18;31.36;100136.19;5038761;28;20140;-72
2023/05/29 06:31:07;;;;;;;0.40;0.40;;;;;;;17.32;31.34;100135.31;5030081;28;20073;-71
2023/05/29 06:33:33;;;;;;;0.52;0.40;;;;;;;17.31;31.46;100133.69;5050334;28;20049;-72
2023/05/29 06:36:00;;;;;;;0.75;0.38;;;;;;;17.44;30.42;100138.34;5031794;28;20063;-71
2023/05/29 06:38:26;;;;;;;0.30;0.30;;;;;;;17.47;30.54;100142.44;5068605;28;20523;-71
2023/05/29 06:40:52;;;;;;;0.30;0.30;;;;;;;17.50;30.56;100153.69;5066276;28;20515;-72
2023/05/29 06:43:18;;;;;;;0.30;0.30;;;;;;;17.51;29.89;100151.75;5051944;28;20325;-76
2023/05/29 06:45:50;;;;;;;0.30;0.30;;;;;;;17.49;29.71;100142.94;5031770;28;20057;-76
2023/05/29 06:48:17;;;;;;;0.30;0.30;;;;;;;17.63;29.81;100151.97;5038066;28;20089;-71
2023/05/29 06:50:46;;;;;;;0.20;0.20;;;;;;;17.76;29.25;100155.00;5068172;28;20073;-72
2023/05/29 06:53:31;;;;;;;0.30;0.30;;;;;;;17.78;28.97;100141.66;5084797;28;20040;-71
2023/05/29 06:55:57;;;;;;;0.30;0.30;;;;;;;17.81;28.15;100154.88;5083251;28;20124;-72
2023/05/29 06:58:23;;;;;;;0.30;0.30;;;;;;;17.78;27.81;100156.31;5067825;28;20059;-72
2023/05/29 07:04:29;;;;;;;0.32;0.32;;;;;;;17.82;29.20;100151.78;5065117;28;20499;-76
2023/05/29 07:06:56;;;;;;;0.30;0.30;;;;;;;18.00;29.19;100155.50;5045704;28;20434;-71
2023/05/29 07:09:25;;;;;;;;;;;;;;;18.08;29.87;100155.88;5048477;28;20131;-71
2023/05/29 07:11:52;;;;;;;0.30;0.30;;;;;;;18.19;29.65;100156.44;5061683;28;19963;-72
2023/05/29 07:14:19;;;;;;;0.28;0.28;;;;;;;18.33;29.27;100151.59;5065877;28;20540;-73
2023/05/29 07:16:45;;;;;;;0.33;0.30;;;;;;;18.47;28.67;100154.28;5047155;28;20052;-71
2023/05/29 07:19:13;;;;;;;0.30;0.30;;;;;;;18.61;28.85;100151.38;5080109;28;20365;-71
2023/05/29 07:21:41;;;;;;;0.30;0.30;;;;;;;18.84;28.44;100146.56;5066383;28;20058;-72
2023/05/29 07:24:08;;;;;;;0.30;0.30;;;;;;;19.12;28.21;100139.94;5063707;28;20358;-71
2023/05/29 07:26:36;;;;;;;0.35;0.35;;;;;;;19.35;28.46;100148.94;5065307;28;20055;-71
2023/05/29 07:29:03;;;;;;;0.40;0.40;;;;;;;19.41;28.12;100150.41;5067686;28;20566;-71
2023/05/29 07:31:30;;;;;;;0.33;0.33;;;;;;;19.46;27.50;100152.22;5069752;28;20476;-76
2023/05/29 07:33:58;;;;;;;0.30;0.30;;;;;;;19.41;28.16;100147.66;5046647;28;20052;-72
2023/05/29 07:36:33;;;;;;;0.30;0.30;;;;;;;19.70;27.88;100150.88;5046604;28;20044;-71
2023/05/29 07:39:05;;;;;;;0.30;0.30;;;;;;;19.70;27.18;100146.16;5068658;28;20100;-71
2023/05/29 07:41:32;;;;;;;0.40;0.40;;;;;;;19.75;27.28;100136.03;5042758;28;20143;-72
2023/05/29 07:44:00;;;;;;;0.30;0.30;;;;;;;19.87;27.09;100138.94;5068681;28;20040;-71
2023/05/29 07:46:27;;;;;;;0.30;0.30;;;;;;;20.04;27.06;100135.34;5050115;28;20692;-72
2023/05/29 07:49:04;;;;;;;0.38;0.38;;;;;;;20.22;26.08;100138.88;5065239;28;20048;-71
2023/05/29 07:51:30;;;;;;;0.40;0.40;;;;;;;19.97;26.16;100133.06;5081818;28;20051;-71
2023/05/29 07:53:57;;;;;;;0.30;0.30;;;;;;;19.59;26.42;100149.59;5061511;28;20544;-71
2023/05/29 07:56:25;;;;;;;0.30;0.30;;;;;;;19.47;26.46;100141.94;5048048;28;20182;-71
2023/05/29 07:58:54;;;;;;;0.35;0.35;;;;;;;19.58;26.32;100154.31;5063290;28;20056;-71
2023/05/29 08:01:21;;;;;;;0.40;0.40;;;;;;;19.79;26.11;100148.09;5062457;28;20051;-71
2023/05/29 08:03:47;;;;;;;0.40;0.40;;;;;;;20.12;25.53;100142.00;5062498;28;20066;-71
2023/05/29 08:06:21;;;;;;;0.40;0.40;;;;;;;20.43;24.99;100152.00;5060865;28;20043;-74
2023/05/29 08:08:48;;;;;;;0.30;0.30;;;;;;;20.36;25.02;100138.66;5081897;28;20044;-75
2023/05/29 08:11:14;;;;;;;0.30;0.30;;;;;;;20.55;25.31;100141.03;5055786;28;20478;-71
2023/05/29 08:13:42;;;;;;;0.40;0.40;;;;;;;21.00;24.55;100138.84;5062262;28;20102;-71
2023/05/29 08:16:08;;;;;;;0.40;0.40;;;;;;;21.09;24.58;100136.00;5065431;28;20527;-71
2023/05/29 08:18:36;;;;;;;0.40;0.40;;;;;;;21.71;23.97;100153.00;5068138;28;20109;-71
2023/05/29 08:21:03;;;;;;;0.40;0.40;;;;;;;21.87;23.73;100142.06;5086115;28;20286;-72
2023/05/29 08:23:31;;;;;;;0.40;0.40;;;;;;;22.15;23.49;100138.63;5027346;28;20052;-75
2023/05/29 08:25:57;;;;;;;;;;;;;;;22.24;23.43;100152.44;5083205;28;20051;-76
2023/05/29 08:28:26;;;;;;;0.80;0.50;;;;;;;21.91;24.27;100153.31;5046961;28;19924;-72
2023/05/29 08:30:54;;;;;;;0.40;0.40;;;;;;;22.23;23.55;100145.25;5080071;28;20101;-71
2023/05/29 08:33:20;;;;;;;0.40;0.40;;;;;;;22.99;22.62;100146.91;5065741;28;20048;-71
2023/05/29 08:35:46;;;;;;;0.50;0.50;;;;;;;23.44;22.30;100129.16;5083195;28;20437;-71
2023/05/29 08:38:12;;;;;;;0.50;0.50;;;;;;;24.04;21.97;100135.97;5057687;28;20075;-74
2023/05/29 08:40:39;;;;;;;0.50;0.50;;;;;;;24.70;20.79;100130.00;5061538;28;20066;-75
2023/05/29 08:43:12;;;;;;;0.50;0.50;;;;;;;24.95;20.45;100133.41;5081879;28;20055;-71
2023/05/29 08:45:42;;;;;;;0.50;0.50;;;;;;;24.67;20.02;100128.75;5048622;28;20061;-75
2023/05/29 08:48:11;;;;;;;0.73;0.50;;;;;;;24.44;20.32;100126.63;5084671;28;20143;-71
2023/05/29 08:50:43;;;;;;;0.60;0.60;;;;;;;24.57;20.83;100132.09;5081914;28;20058;-72
2023/05/29 08:53:10;;;;;;;0.60;0.60;;;;;;;24.92;19.57;100126.56;5048356;28;20086;-71
2023/05/29 08:55:37;;;;;;;0.60;0.60;;;;;;;25.03;19.41;100128.78;5081188;28;20551;-71
2023/05/29 08:58:04;;;;;;;0.55;0.55;;;;;;;24.84;19.48;100130.38;5061386;28;20048;-72
2023/05/29 09:00:31;;;;;;;0.60;0.60;;;;;;;24.39;20.08;100126.06;5062160;28;20072;-75
2023/05/29 09:02:59;;;;;;;0.60;0.60;;;;;;;24.70;20.06;100125.25;5062113;28;20045;-75
2023/05/29 09:05:27;;;;;;;0.60;0.60;;;;;;;25.48;19.64;100121.75;5082145;28;20059;-74
2023/05/29 09:07:53;;;;;;;0.60;0.60;;;;;;;26.04;19.02;100113.19;5084367;28;20097;-75
2023/05/29 09:10:21;;;;;;;0.70;0.70;;;;;;;26.81;18.46;100113.25;5082799;28;20070;-76
2023/05/29 09:12:50;;;;;;;0.60;0.60;;;;;;;27.41;17.70;100117.28;5088939;28;20052;-72
2023/05/29 09:15:18;;;;;;;0.65;0.65;;;;;;;27.47;17.60;100100.88;5064824;28;20101;-76
2023/05/29 09:17:49;;;;;;;0.60;0.60;;;;;;;27.78;17.21;100115.69;5062242;28;20258;-73
2023/05/29 09:20:19;;;;;;;0.60;0.60;;;;;;;28.23;16.76;100101.69;5076248;28;20492;-75
2023/05/29 09:22:53;;;;;;;0.70;0.70;;;;;;;27.93;17.05;100102.59;5081285;28;20044;-70
2023/05/29 09:25:22;;;;;;;0.70;0.70;;;;;;;27.55;16.72;100115.81;5060295;28;20067;-72
2023/05/29 09:27:50;;;;;;;0.80;0.80;;;;;;;26.55;17.78;100106.47;5081567;28;20079;-72
2023/05/29 09:30:31;;;;;;;0.70;0.70;;;;;;;26.65;17.74;100096.59;5077072;28;20036;-72
2023/05/29 09:33:00;;;;;;;0.70;0.70;;;;;;;27.09;17.52;100109.25;5085493;28;20084;-72
2023/05/29 09:35:32;;;;;;;0.70;0.70;;;;;;;27.33;17.55;100095.91;5069999;28;20036;-71
2023/05/29 09:38:00;;;;;;;0.70;0.70;;;;;;;27.79;17.26;100108.91;5061888;28;20139;-71
2023/05/29 09:40:26;;;;;;;0.80;0.80;;;;;;;27.91;16.65;100087.31;5085858;28;20085;-71
2023/05/29 09:42:53;;;;;;;0.80;0.80;;;;;;;28.14;16.76;100084.31;5080117;28;20044;-75
2023/05/29 09:45:21;;;;;;;0.80;0.80;;;;;;;28.63;16.06;100081.47;5075401;28;20048;-71
2023/05/29 09:47:48;;;;;;;0.80;0.80;;;;;;;28.35;16.53;100086.50;5066822;28;20072;-72
2023/05/29 09:50:20;;;;;;;0.82;0.82;;;;;;;28.13;17.24;100075.09;5077401;28;20083;-75
2023/05/29 09:52:46;;;;;;;0.90;0.90;;;;;;;27.92;17.50;100092.56;5044103;28;20048;-75
2023/05/29 09:55:17;;;;;;;0.90;0.90;;;;;;;27.54;17.63;100086.97;5058270;28;20503;-72
2023/05/29 09:57:48;;;;;;;0.90;0.90;;;;;;;27.93;17.00;100074.50;5054345;28;20040;-71
2023/05/29 10:00:16;;;;;;;0.90;0.90;;;;;;;28.77;16.59;100070.31;5081736;28;20040;-75
2023/05/29 10:02:42;;;;;;;0.95;0.95;;;;;;;28.74;16.45;100076.72;5081651;28;20059;-71
2023/05/29 10:05:10;;;;;;;0.90;0.90;;;;;;;28.22;17.28;100073.97;5078558;28;20042;-71
2023/05/29 10:07:37;;;;;;;1.00;1.00;;;;;;;28.41;17.22;100079.34;5058402;28;20439;-71
2023/05/29 10:10:07;;;;;;;0.90;0.90;;;;;;;28.95;16.26;100078.06;5072946;28;20047;-71
2023/05/29 10:12:38;;;;;;;1.00;1.00;;;;;;;29.17;16.21;100069.72;5076946;28;20048;-71
2023/05/29 10:15:11;;;;;;;1.00;1.00;;;;;;;30.20;15.65;100067.53;5076861;28;20257;-72
2023/05/29 10:17:40;;;;;;;1.00;1.00;;;;;;;30.06;15.56;100068.34;5058287;28;20040;-75
2023/05/29 10:20:10;;;;;;;1.00;1.00;;;;;;;29.65;16.40;100077.13;5073548;28;20054;-72
2023/05/29 10:22:41;;;;;;;1.10;1.10;;;;;;;29.01;16.58;100066.03;5054964;28;20701;-74
2023/05/29 10:25:10;;;;;;;1.10;1.10;;;;;;;28.26;16.87;100072.00;5080982;28;20347;-74
2023/05/29 10:27:38;;;;;;;1.00;1.00;;;;;;;28.24;17.05;100063.13;5062788;28;20044;-75
2023/05/29 10:30:12;;;;;;;1.00;1.00;;;;;;;28.41;17.26;100056.03;5080506;28;20052;-71
2023/05/29 10:32:52;;;;;;;1.10;1.10;;;;;;;29.16;16.52;100071.72;5058338;28;20047;-74
2023/05/29 10:35:25;;;;;;;1.10;1.10;;;;;;;29.94;16.21;100060.25;5082764;28;20044;-75
2023/05/29 10:37:57;;;;;;;1.00;1.00;;;;;;;30.70;15.57;100063.84;5062200;28;20048;-75
2023/05/29 10:40:25;;;;;;;1.10;1.10;;;;;;;30.98;15.04;100053.69;5057583;28;20037;-75
2023/05/29 10:42:58;;;;;;;1.10;1.10;;;;;;;31.50;14.57;100046.56;5063790;28;20087;-75
2023/05/29 10:45:56;;;;;;;1.10;1.10;;;;;;;31.85;13.97;100060.91;5044341;28;20085;-74
2023/05/29 10:48:42;;;;;;;1.20;1.20;;;;;;;30.49;14.15;100047.75;5038744;28;20283;-73
2023/05/29 10:51:24;;;;;;;1.20;1.20;;;;;;;29.78;14.78;100050.19;5045870;28;20434;-75
2023/05/29 10:53:51;;;;;;;1.30;1.20;;;;;;;29.32;15.20;100056.50;5058874;28;20048;-75
2023/05/29 10:56:22;;;;;;;1.30;1.20;;;;;;;28.83;15.56;100051.91;5080613;28;20052;-74
2023/05/29 10:58:53;;;;;;;1.27;1.20;;;;;;;29.20;15.55;100050.03;5059773;28;20097;-71
2023/05/29 11:01:22;;;;;;;1.30;1.20;;;;;;;29.66;15.28;100050.56;5071851;28;20052;-71
2023/05/29 11:03:49;;;;;;;1.30;1.20;;;;;;;30.51;14.48;100050.16;5050787;28;20044;-71
2023/05/29 11:06:19;;;;;;;1.30;1.20;;;;;;;30.89;14.36;100046.88;5080036;28;20040;-72
2023/05/29 11:08:46;;;;;;;1.20;1.20;;;;;;;30.13;14.97;100045.00;5058091;28;20044;-71
2023/05/29 11:11:14;;;;;;;1.30;1.20;;;;;;;30.03;14.62;100046.59;5062605;28;20568;-70
2023/05/29 11:13:44;;;;;;;1.30;1.20;;;;;;;29.83;14.91;100043.34;5035962;28;20051;-72
2023/05/29 11:16:14;;;;;;;1.20;1.20;;;;;;;30.43;14.66;100035.28;5087212;28;20350;-71
2023/05/29 11:18:41;;;;;;;1.30;1.20;;;;;;;30.74;14.66;100040.47;5063230;28;20047;-71
2023/05/29 11:21:23;;;;;;;1.30;1.20;;;;;;;31.12;14.51;100033.03;5057722;28;20419;-71
2023/05/29 11:23:51;;;;;;;1.40;1.30;;;;;;;31.83;13.24;100029.44;5079865;28;20522;-71
2023/05/29 11:26:19;;;;;;;1.30;1.20;;;;;;;32.13;13.08;100027.16;5078524;28;20036;-71
2023/05/29 11:28:46;;;;;;;1.30;1.20;;;;;;;32.13;13.17;100025.13;5074365;28;20036;-71
2023/05/29 11:31:16;;;;;;;1.40;1.30;;;;;;;32.20;13.11;100030.72;5052744;28;20418;-70
2023/05/29 11:33:49;;;;;;;1.30;1.20;;;;;;;32.92;13.32;100023.50;5043268;28;20512;-71
2023/05/29 11:36:19;;;;;;;1.30;1.20;;;;;;;33.79;12.67;100025.13;5076738;28;20043;-71
2023/05/29 11:38:46;;;;;;;1.30;1.20;;;;;;;33.53;12.37;100015.41;5056248;28;20052;-70